createdAt,value
2023-05-16T00:01:48.285Z,1.30
2023-05-16T00:04:15.279Z,1.10
2023-05-16T00:06:41.978Z,1.15
2023-05-16T00:09:08.770Z,1.00
2023-05-16T00:11:35.405Z,1.08
2023-05-16T00:14:02.587Z,1.05
2023-05-16T00:16:30.276Z,1.10
2023-05-16T00:19:01.087Z,1.10
2023-05-16T00:21:28.217Z,1.10
2023-05-16T00:23:55.058Z,1.00
2023-05-16T00:26:21.938Z,1.10
2023-05-16T00:28:48.822Z,1.10
2023-05-16T00:31:15.808Z,1.10
2023-05-16T00:33:42.586Z,1.10
2023-05-16T00:36:09.327Z,1.20
2023-05-16T00:38:36.153Z,1.15
2023-05-16T00:41:03.199Z,1.10
2023-05-16T00:43:30.082Z,1.00
2023-05-16T00:45:58.148Z,1.23
2023-05-16T00:48:25.161Z,1.20
2023-05-16T00:50:52.859Z,1.20
2023-05-16T00:53:20.130Z,1.20
2023-05-16T00:55:47.546Z,1.00
2023-05-16T00:58:14.423Z,1.10
2023-05-16T01:00:41.401Z,1.25
2023-05-16T01:03:08.873Z,1.33
2023-05-16T01:05:35.620Z,1.25
2023-05-16T01:08:02.289Z,1.33
2023-05-16T01:10:36.938Z,1.08
2023-05-16T01:13:16.193Z,1.20
2023-05-16T01:15:51.203Z,1.10
2023-05-16T01:18:24.966Z,1.30
2023-05-16T01:21:04.976Z,1.10
2023-05-16T01:23:34.699Z,1.08
2023-05-16T01:26:24.747Z,1.08
2023-05-16T01:28:52.120Z,1.27
2023-05-16T01:31:19.813Z,1.10
2023-05-16T01:33:47.051Z,1.30
2023-05-16T01:36:30.448Z,1.20
2023-05-16T01:39:00.225Z,1.20
2023-05-16T01:42:02.268Z,1.02
2023-05-16T01:44:34.927Z,1.10
2023-05-16T01:47:02.979Z,1.00
2023-05-16T01:49:38.909Z,1.10
2023-05-16T01:52:17.727Z,1.13
2023-05-16T01:54:46.054Z,1.10
2023-05-16T01:57:13.262Z,1.10
2023-05-16T01:59:41.232Z,1.08
2023-05-16T02:02:07.924Z,1.00
2023-05-16T02:04:34.659Z,1.00
2023-05-16T02:07:01.992Z,1.10
2023-05-16T02:09:28.920Z,1.10
2023-05-16T02:11:55.597Z,1.20
2023-05-16T02:14:25.919Z,1.10
2023-05-16T02:16:52.747Z,1.10
2023-05-16T02:19:19.528Z,1.08
2023-05-16T02:21:46.278Z,1.20
2023-05-16T02:24:13.025Z,1.17
2023-05-16T02:26:39.672Z,1.23
2023-05-16T02:29:06.368Z,1.40
2023-05-16T02:31:34.808Z,1.27
2023-05-16T02:34:01.783Z,1.10
2023-05-16T02:36:28.765Z,1.13
2023-05-16T02:38:55.476Z,1.13
2023-05-16T02:41:23.305Z,1.17
2023-05-16T02:43:50.037Z,1.20
2023-05-16T02:46:23.376Z,1.20
2023-05-16T02:48:51.191Z,1.35
2023-05-16T02:51:19.111Z,1.23
2023-05-16T02:53:45.830Z,1.10
2023-05-16T02:56:12.564Z,1.20
2023-05-16T02:58:40.306Z,1.25
2023-05-16T03:01:07.048Z,1.20
2023-05-16T03:03:36.040Z,1.10
2023-05-16T03:06:03.129Z,1.23
2023-05-16T03:08:29.922Z,1.10
2023-05-16T03:10:56.587Z,1.20
2023-05-16T03:13:23.547Z,1.30
2023-05-16T03:15:50.258Z,1.40
2023-05-16T03:18:17.848Z,1.20
2023-05-16T03:20:44.982Z,1.30
2023-05-16T03:23:11.627Z,1.30
2023-05-16T03:25:38.313Z,1.25
2023-05-16T03:28:07.868Z,1.17
2023-05-16T03:30:35.273Z,1.23
2023-05-16T03:33:02.100Z,1.40
2023-05-16T03:35:29.168Z,1.20
2023-05-16T03:37:56.096Z,1.30
2023-05-16T03:40:23.483Z,1.30
2023-05-16T03:42:50.985Z,1.20
2023-05-16T03:45:17.806Z,1.20
2023-05-16T03:47:44.607Z,1.25
2023-05-16T03:50:11.710Z,1.30
2023-05-16T03:52:38.599Z,1.25
2023-05-16T03:55:06.029Z,1.20
2023-05-16T03:57:33.369Z,1.30
2023-05-16T04:00:00.414Z,1.20
2023-05-16T04:02:27.148Z,1.20
2023-05-16T04:04:54.189Z,1.10
2023-05-16T04:07:22.578Z,1.20
2023-05-16T04:09:51.832Z,1.20
2023-05-16T04:12:18.445Z,1.35
2023-05-16T04:14:45.287Z,1.20
2023-05-16T04:17:12.914Z,1.15
2023-05-16T04:19:39.910Z,1.20
2023-05-16T04:22:07.732Z,1.10
2023-05-16T04:24:34.750Z,1.20
2023-05-16T04:27:01.552Z,1.20
2023-05-16T04:29:28.299Z,1.20
2023-05-16T04:31:55.169Z,1.40
2023-05-16T04:34:23.191Z,2.20
2023-05-16T04:36:49.899Z,2.00
2023-05-16T04:39:17.240Z,1.80
2023-05-16T04:41:43.899Z,1.90
2023-05-16T04:44:11.263Z,2.50
2023-05-16T04:46:38.067Z,2.53
2023-05-16T04:49:04.800Z,2.33
2023-05-16T04:51:32.761Z,2.83
2023-05-16T04:53:59.893Z,2.95
2023-05-16T04:56:29.460Z,2.60
2023-05-16T04:58:56.296Z,2.63
2023-05-16T05:01:23.500Z,2.50
2023-05-16T05:03:50.148Z,2.95
2023-05-16T05:06:16.803Z,2.88
2023-05-16T05:08:43.473Z,3.13
2023-05-16T05:11:10.131Z,3.20
2023-05-16T05:13:36.782Z,3.47
2023-05-16T05:16:04.857Z,2.78
2023-05-16T05:18:31.861Z,3.47
2023-05-16T05:20:58.629Z,3.70
2023-05-16T05:23:25.994Z,2.78
2023-05-16T05:25:52.632Z,2.35
2023-05-16T05:28:19.348Z,2.70
2023-05-16T05:30:47.034Z,2.15
2023-05-16T05:33:15.859Z,2.33
2023-05-16T05:35:42.494Z,2.05
2023-05-16T05:38:09.157Z,1.95
2023-05-16T05:40:35.843Z,2.15
2023-05-16T05:43:02.556Z,2.10
2023-05-16T05:45:29.582Z,2.05
2023-05-16T05:47:56.598Z,2.00
2023-05-16T05:50:23.253Z,2.08
2023-05-16T05:52:50.325Z,1.92
2023-05-16T05:55:17.073Z,2.10
2023-05-16T05:57:43.872Z,2.13
2023-05-16T06:00:11.575Z,2.03
2023-05-16T06:02:38.740Z,1.85
2023-05-16T06:05:05.909Z,2.00
2023-05-16T06:07:32.578Z,1.90
2023-05-16T06:09:59.975Z,2.15
2023-05-16T06:12:26.587Z,1.73
2023-05-16T06:14:53.289Z,2.00
2023-05-16T06:17:20.021Z,2.25
2023-05-16T06:19:47.128Z,2.30
2023-05-16T06:22:14.748Z,2.10
2023-05-16T06:24:41.407Z,2.10
2023-05-16T06:27:08.744Z,2.00
2023-05-16T06:29:35.386Z,2.00
2023-05-16T06:32:02.229Z,2.10
2023-05-16T06:34:29.279Z,2.15
2023-05-16T06:36:56.150Z,2.10
2023-05-16T06:39:22.773Z,1.90
2023-05-16T06:41:49.667Z,1.90
2023-05-16T06:44:16.592Z,2.03
2023-05-16T06:46:43.446Z,2.17
2023-05-16T06:49:10.197Z,1.90
2023-05-16T06:51:40.552Z,2.00
2023-05-16T06:54:07.262Z,2.38
2023-05-16T06:56:34.259Z,1.88
2023-05-16T06:59:02.015Z,1.80
2023-05-16T07:01:29.081Z,1.80
2023-05-16T07:03:55.983Z,1.98
2023-05-16T07:06:22.676Z,2.00
2023-05-16T07:08:49.370Z,2.10
2023-05-16T07:11:16.190Z,2.00
2023-05-16T07:13:42.853Z,1.90
2023-05-16T07:16:09.598Z,1.77
2023-05-16T07:18:36.350Z,1.85
2023-05-16T07:21:03.092Z,2.08
2023-05-16T07:23:29.770Z,1.80
2023-05-16T07:25:56.474Z,2.00
2023-05-16T07:28:23.728Z,1.80
2023-05-16T07:30:50.762Z,1.90
2023-05-16T07:33:17.440Z,1.77
2023-05-16T07:35:44.230Z,1.95
2023-05-16T07:38:11.705Z,2.05
2023-05-16T07:40:38.441Z,1.90
2023-05-16T07:43:05.162Z,2.00
2023-05-16T07:45:31.894Z,1.63
2023-05-16T07:48:00.155Z,1.75
2023-05-16T07:50:27.402Z,1.73
2023-05-16T07:52:54.191Z,2.42
2023-05-16T07:55:22.235Z,2.65
2023-05-16T07:57:49.666Z,2.47
2023-05-16T08:00:17.520Z,2.35
2023-05-16T08:02:44.373Z,2.20
2023-05-16T08:05:11.292Z,2.08
2023-05-16T08:07:38.139Z,2.00
2023-05-16T08:10:05.525Z,2.13
2023-05-16T08:12:34.244Z,1.80
2023-05-16T08:15:01.129Z,1.70
2023-05-16T08:17:27.910Z,2.08
2023-05-16T08:19:57.333Z,1.83
2023-05-16T08:22:24.010Z,1.83
2023-05-16T08:24:50.766Z,1.75
2023-05-16T08:27:17.432Z,1.80
2023-05-16T08:29:44.453Z,1.80
2023-05-16T08:32:11.366Z,2.10
2023-05-16T08:34:38.062Z,1.90
2023-05-16T08:37:04.987Z,1.90
2023-05-16T08:39:31.822Z,1.92
2023-05-16T08:41:58.967Z,1.83
2023-05-16T08:44:25.906Z,1.90
2023-05-16T08:46:53.662Z,1.90
2023-05-16T08:49:21.176Z,1.83
2023-05-16T08:51:48.753Z,1.90
2023-05-16T08:54:16.493Z,2.00
2023-05-16T08:56:44.816Z,2.00
2023-05-16T08:59:15.007Z,1.70
2023-05-16T09:01:42.138Z,1.88
2023-05-16T09:04:09.881Z,1.70
2023-05-16T09:06:37.221Z,1.80
2023-05-16T09:09:05.115Z,1.75
2023-05-16T09:11:31.808Z,1.90
2023-05-16T09:13:58.442Z,2.08
2023-05-16T09:16:25.323Z,1.73
2023-05-16T09:19:00.149Z,1.90
2023-05-16T09:21:34.490Z,1.83
2023-05-16T09:24:05.316Z,1.60
2023-05-16T09:26:39.253Z,1.90
2023-05-16T09:29:13.162Z,1.77
2023-05-16T09:31:40.094Z,1.90
2023-05-16T09:34:12.643Z,1.90
2023-05-16T09:36:40.667Z,2.05
2023-05-16T09:39:09.096Z,2.10
2023-05-16T09:41:36.551Z,1.80
2023-05-16T09:44:06.883Z,2.28
2023-05-16T09:46:38.815Z,2.13
2023-05-16T09:49:06.351Z,2.05
2023-05-16T09:51:33.562Z,2.20
2023-05-16T09:54:00.715Z,2.05
2023-05-16T09:56:27.597Z,2.22
2023-05-16T09:58:54.356Z,2.05
2023-05-16T10:01:21.140Z,2.15
2023-05-16T10:03:48.441Z,2.00
2023-05-16T10:06:16.719Z,2.00
2023-05-16T10:08:43.844Z,2.20
2023-05-16T10:11:11.265Z,2.08
2023-05-16T10:13:38.282Z,1.95
2023-05-16T10:16:11.388Z,2.10
2023-05-16T10:18:39.314Z,2.03
2023-05-16T10:21:10.384Z,2.00
2023-05-16T10:23:41.796Z,1.88
2023-05-16T10:26:09.338Z,1.90
2023-05-16T10:28:36.663Z,2.15
2023-05-16T10:31:03.539Z,1.90
2023-05-16T10:33:30.420Z,2.00
2023-05-16T10:35:57.327Z,2.10
2023-05-16T10:38:24.779Z,2.00
2023-05-16T10:40:51.704Z,2.03
2023-05-16T10:43:26.656Z,1.88
2023-05-16T10:48:39.892Z,2.20
2023-05-16T10:51:35.629Z,2.30
2023-05-16T10:54:07.678Z,2.08
2023-05-16T10:56:35.336Z,2.00
2023-05-16T10:59:02.587Z,2.13
2023-05-16T11:01:30.609Z,2.10
2023-05-16T11:03:57.430Z,2.00
2023-05-16T11:06:25.247Z,2.25
2023-05-16T11:09:26.555Z,2.10
2023-05-16T11:11:53.379Z,2.10
2023-05-16T11:14:24.154Z,2.20
2023-05-16T11:17:13.865Z,2.30
2023-05-16T11:19:50.193Z,2.22
2023-05-16T11:22:20.803Z,2.08
2023-05-16T11:25:00.836Z,1.95
2023-05-16T11:27:32.336Z,2.40
2023-05-16T11:30:13.392Z,2.15
2023-05-16T11:32:42.483Z,2.10
2023-05-16T11:35:13.722Z,2.30
2023-05-16T11:37:42.129Z,2.15
2023-05-16T11:40:14.655Z,2.10
2023-05-16T11:42:48.399Z,1.90
2023-05-16T11:45:17.278Z,2.20
2023-05-16T11:47:45.737Z,2.00
2023-05-16T11:50:14.741Z,2.20
2023-05-16T11:52:53.705Z,2.10
2023-05-16T11:55:36.851Z,2.30
2023-05-16T11:58:08.460Z,2.10
2023-05-16T12:00:35.413Z,2.22
2023-05-16T12:03:05.080Z,1.98
2023-05-16T12:05:34.058Z,2.10
2023-05-16T12:08:02.890Z,2.42
2023-05-16T12:10:31.473Z,2.40
2023-05-16T12:12:58.251Z,2.22
2023-05-16T12:15:25.518Z,2.55
2023-05-16T12:17:52.741Z,2.60
2023-05-16T12:20:19.983Z,2.30
2023-05-16T12:22:46.944Z,2.40
2023-05-16T12:25:24.474Z,2.22
2023-05-16T12:27:53.413Z,2.33
2023-05-16T12:30:22.432Z,2.35
2023-05-16T12:33:12.993Z,2.38
2023-05-16T12:35:41.729Z,2.15
2023-05-16T12:38:10.579Z,2.30
2023-05-16T12:40:38.185Z,2.28
2023-05-16T12:43:15.517Z,2.40
2023-05-16T12:45:45.586Z,2.40
2023-05-16T12:48:14.224Z,2.17
2023-05-16T12:50:41.809Z,2.20
2023-05-16T12:53:13.748Z,2.20
2023-05-16T12:55:40.797Z,2.25
2023-05-16T12:58:08.273Z,2.60
2023-05-16T13:00:36.538Z,2.33
2023-05-16T13:03:04.447Z,2.50
2023-05-16T13:05:31.233Z,2.50
2023-05-16T13:07:58.134Z,2.40
2023-05-16T13:10:26.148Z,2.50
2023-05-16T13:12:53.910Z,2.67
2023-05-16T13:15:21.066Z,2.60
2023-05-16T13:17:48.674Z,2.50
2023-05-16T13:20:15.870Z,2.40
2023-05-16T13:22:43.884Z,2.53
2023-05-16T13:25:11.041Z,2.30
2023-05-16T13:27:37.870Z,2.50
2023-05-16T13:30:05.092Z,2.20
2023-05-16T13:32:31.795Z,2.35
2023-05-16T13:34:58.554Z,2.45
2023-05-16T13:37:25.800Z,2.35
2023-05-16T13:39:54.750Z,2.28
2023-05-16T13:42:21.697Z,2.35
2023-05-16T13:44:48.582Z,2.40
2023-05-16T13:47:18.386Z,2.33
2023-05-16T13:49:45.115Z,2.67
2023-05-16T13:52:11.935Z,3.00
2023-05-16T13:54:40.508Z,2.60
2023-05-16T13:57:07.554Z,2.65
2023-05-16T14:02:04.492Z,2.50
2023-05-16T14:04:31.302Z,2.40
2023-05-16T14:06:58.359Z,2.50
2023-05-16T14:09:25.153Z,2.47
2023-05-16T14:11:51.876Z,2.47
2023-05-16T14:14:18.831Z,2.40
2023-05-16T14:16:46.317Z,2.20
2023-05-16T14:19:15.303Z,2.22
2023-05-16T14:21:43.462Z,2.50
2023-05-16T14:24:10.162Z,2.85
2023-05-16T14:26:37.400Z,2.90
2023-05-16T14:29:04.249Z,2.95
2023-05-16T14:31:31.071Z,2.85
2023-05-16T14:33:59.055Z,2.70
2023-05-16T14:36:25.871Z,2.28
2023-05-16T14:38:52.647Z,2.50
2023-05-16T14:41:19.412Z,2.50
2023-05-16T14:43:46.286Z,2.40
2023-05-16T14:46:13.091Z,2.97
2023-05-16T14:48:39.899Z,2.35
2023-05-16T14:51:07.091Z,2.80
2023-05-16T14:53:33.759Z,2.72
2023-05-16T14:56:02.826Z,2.63
2023-05-16T14:58:30.714Z,2.40
2023-05-16T15:00:57.518Z,2.58
2023-05-16T15:03:24.330Z,2.58
2023-05-16T15:05:51.171Z,2.40
2023-05-16T15:08:17.868Z,2.40
2023-05-16T15:10:45.713Z,2.40
2023-05-16T15:13:12.393Z,2.50
2023-05-16T15:15:39.201Z,2.80
2023-05-16T15:18:06.231Z,2.83
2023-05-16T15:20:33.399Z,2.50
2023-05-16T15:23:03.240Z,2.50
2023-05-16T15:25:30.258Z,2.72
2023-05-16T15:27:57.406Z,2.80
2023-05-16T15:30:24.132Z,2.50
2023-05-16T15:32:51.065Z,2.80
2023-05-16T15:35:18.137Z,2.90
2023-05-16T15:37:44.928Z,2.67
2023-05-16T15:40:12.611Z,2.47
2023-05-16T15:42:39.366Z,2.50
2023-05-16T15:45:06.544Z,2.60
2023-05-16T15:47:33.312Z,2.90
2023-05-16T15:50:00.170Z,2.70
2023-05-16T15:52:26.899Z,2.65
2023-05-16T15:54:53.600Z,2.70
2023-05-16T15:57:20.385Z,2.88
2023-05-16T15:59:47.097Z,2.78
2023-05-16T16:02:13.851Z,3.00
2023-05-16T16:04:40.704Z,3.13
2023-05-16T16:07:07.532Z,2.80
2023-05-16T16:09:34.216Z,3.30
2023-05-16T16:12:01.200Z,3.38
2023-05-16T16:14:28.054Z,3.00
2023-05-16T16:16:54.812Z,3.10
2023-05-16T16:19:21.648Z,2.97
2023-05-16T16:21:48.444Z,3.53
2023-05-16T16:24:15.287Z,3.30
2023-05-16T16:26:42.525Z,3.00
2023-05-16T16:29:09.480Z,3.03
2023-05-16T16:31:36.328Z,3.17
2023-05-16T16:34:03.358Z,3.50
2023-05-16T16:36:31.603Z,3.55
2023-05-16T16:38:58.846Z,3.05
2023-05-16T16:41:25.541Z,3.25
2023-05-16T16:43:52.937Z,3.90
2023-05-16T16:46:19.755Z,3.50
2023-05-16T16:48:46.571Z,3.50
2023-05-16T16:51:13.329Z,3.38
2023-05-16T16:53:41.077Z,3.42
2023-05-16T16:56:07.795Z,3.22
2023-05-16T16:58:34.576Z,4.07
2023-05-16T17:01:01.418Z,3.70
2023-05-16T17:03:28.178Z,3.28
2023-05-16T17:05:54.930Z,3.72
2023-05-16T17:08:22.245Z,3.35
2023-05-16T17:10:49.021Z,3.40
2023-05-16T17:13:17.658Z,3.28
2023-05-16T17:15:44.650Z,3.63
2023-05-16T17:18:11.454Z,4.20
2023-05-16T17:20:38.299Z,3.22
2023-05-16T17:23:05.476Z,3.20
2023-05-16T17:25:32.494Z,3.38
2023-05-16T17:27:59.287Z,3.45
2023-05-16T17:30:26.324Z,3.25
2023-05-16T17:32:54.000Z,3.40
2023-05-16T17:35:20.872Z,3.47
2023-05-16T17:37:47.914Z,3.05
2023-05-16T17:40:17.260Z,3.25
2023-05-16T17:42:45.143Z,3.25
2023-05-16T17:45:16.211Z,3.28
2023-05-16T17:47:43.291Z,3.10
2023-05-16T17:50:10.935Z,3.40
2023-05-16T17:52:39.538Z,3.22
2023-05-16T17:55:08.850Z,3.15
2023-05-16T17:57:35.744Z,3.28
2023-05-16T18:00:05.492Z,3.03
2023-05-16T18:02:32.646Z,3.78
2023-05-16T18:04:59.638Z,3.15
2023-05-16T18:07:27.208Z,3.30
2023-05-16T18:09:54.584Z,3.40
2023-05-16T18:12:21.441Z,3.60
2023-05-16T18:14:48.312Z,3.20
2023-05-16T18:17:15.513Z,3.55
2023-05-16T18:19:42.373Z,3.22
2023-05-16T18:22:12.799Z,3.65
2023-05-16T18:24:40.036Z,3.40
2023-05-16T18:27:06.927Z,3.50
2023-05-16T18:29:34.362Z,3.35
2023-05-16T18:32:01.297Z,3.33
2023-05-16T18:34:28.052Z,3.40
2023-05-16T18:36:55.021Z,3.40
2023-05-16T18:39:21.997Z,3.45
2023-05-16T18:41:48.897Z,3.30
2023-05-16T18:44:17.259Z,2.92
2023-05-16T18:46:47.343Z,3.40
2023-05-16T18:49:14.399Z,3.28
2023-05-16T18:51:41.226Z,3.40
2023-05-16T18:54:08.012Z,3.35
2023-05-16T18:56:34.891Z,3.22
2023-05-16T18:59:01.709Z,3.25
2023-05-16T19:01:28.694Z,3.47
2023-05-16T19:03:55.689Z,3.33
2023-05-16T19:06:22.707Z,3.28
2023-05-16T19:08:49.518Z,3.40
2023-05-16T19:11:17.602Z,3.40
2023-05-16T19:13:47.575Z,3.20
2023-05-16T19:16:14.776Z,3.03
2023-05-16T19:18:42.081Z,3.40
2023-05-16T19:21:10.300Z,3.15
2023-05-16T19:23:37.264Z,3.38
2023-05-16T19:26:04.115Z,3.30
2023-05-16T19:28:31.084Z,3.55
2023-05-16T19:30:58.083Z,3.20
2023-05-16T19:33:24.992Z,3.47
2023-05-16T19:35:52.880Z,3.22
2023-05-16T19:38:24.453Z,3.03
2023-05-16T19:40:52.042Z,3.35
2023-05-16T19:43:19.144Z,3.17
2023-05-16T19:45:45.869Z,3.17
2023-05-16T19:48:12.818Z,3.13
2023-05-16T19:50:39.830Z,3.17
2023-05-16T19:53:06.575Z,3.55
2023-05-16T19:55:35.142Z,3.42
2023-05-16T19:58:02.979Z,3.65
2023-05-16T20:00:30.176Z,3.70
2023-05-16T20:02:57.047Z,3.80
2023-05-16T20:05:23.981Z,3.30
2023-05-16T20:07:50.793Z,3.95
2023-05-16T20:10:19.220Z,3.63
2023-05-16T20:12:47.983Z,3.70
2023-05-16T20:15:14.755Z,3.53
2023-05-16T20:17:41.678Z,3.53
2023-05-16T20:20:09.501Z,3.33
2023-05-16T20:22:41.270Z,3.50
2023-05-16T20:25:12.224Z,3.40
2023-05-16T20:27:39.686Z,3.67
2023-05-16T20:30:07.480Z,3.58
2023-05-16T20:32:34.420Z,3.70
2023-05-16T20:35:04.235Z,2.92
2023-05-16T20:37:30.976Z,3.30
2023-05-16T20:39:57.672Z,3.17
2023-05-16T20:42:24.331Z,3.22
2023-05-16T20:44:51.318Z,3.33
2023-05-16T20:47:18.180Z,3.13
2023-05-16T20:49:44.976Z,3.50
2023-05-16T20:52:11.890Z,3.00
2023-05-16T20:54:38.578Z,3.25
2023-05-16T20:57:05.803Z,2.78
2023-05-16T20:59:32.793Z,3.10
2023-05-16T21:02:00.009Z,3.15
2023-05-16T21:04:26.860Z,3.10
2023-05-16T21:06:53.780Z,2.92
2023-05-16T21:09:20.602Z,2.80
2023-05-16T21:11:47.293Z,2.78
2023-05-16T21:14:14.474Z,3.20
2023-05-16T21:16:41.789Z,2.83
2023-05-16T21:19:08.793Z,2.95
2023-05-16T21:21:35.668Z,2.75
2023-05-16T21:24:02.505Z,2.80
2023-05-16T21:26:29.240Z,2.70
2023-05-16T21:28:56.196Z,2.92
2023-05-16T21:31:23.513Z,2.72
2023-05-16T21:33:53.183Z,2.70
2023-05-16T21:36:20.863Z,2.55
2023-05-16T21:38:48.220Z,2.70
2023-05-16T21:41:15.097Z,2.90
2023-05-16T21:43:41.788Z,2.33
2023-05-16T21:46:08.484Z,2.40
2023-05-16T21:48:35.468Z,2.40
2023-05-16T21:51:02.590Z,2.40
2023-05-16T21:53:29.403Z,2.42
2023-05-16T21:55:56.078Z,2.53
2023-05-16T21:58:23.415Z,2.40
2023-05-16T22:00:50.172Z,2.47
2023-05-16T22:03:19.153Z,2.70
2023-05-16T22:05:46.713Z,2.55
2023-05-16T22:08:13.444Z,2.33
2023-05-16T22:10:40.150Z,2.20
2023-05-16T22:13:08.111Z,2.47
2023-05-16T22:15:34.982Z,2.40
2023-05-16T22:18:02.123Z,2.40
2023-05-16T22:20:29.776Z,2.20
2023-05-16T22:22:57.823Z,2.47
2023-05-16T22:25:24.638Z,2.60
2023-05-16T22:27:51.426Z,2.47
2023-05-16T22:30:18.495Z,2.00
2023-05-16T22:32:46.952Z,2.30
2023-05-16T22:35:14.146Z,2.13
2023-05-16T22:37:40.877Z,2.45
2023-05-16T22:40:09.056Z,2.25
2023-05-16T22:42:35.744Z,2.17
2023-05-16T22:45:03.996Z,2.08
2023-05-16T22:47:30.847Z,2.22
2023-05-16T22:49:57.643Z,2.00
2023-05-16T22:52:24.320Z,2.10
2023-05-16T22:54:51.052Z,2.10
2023-05-16T22:57:17.761Z,1.98
2023-05-16T22:59:44.506Z,1.90
2023-05-16T23:02:11.257Z,2.15
2023-05-16T23:04:38.073Z,2.13
2023-05-16T23:07:05.117Z,1.80
2023-05-16T23:09:31.804Z,2.10
2023-05-16T23:11:59.304Z,2.00
2023-05-16T23:14:26.375Z,1.90
2023-05-16T23:16:53.080Z,2.22
2023-05-16T23:19:20.115Z,2.10
2023-05-16T23:21:47.052Z,2.00
2023-05-16T23:24:13.734Z,1.88
2023-05-16T23:26:40.520Z,2.00
2023-05-16T23:29:07.568Z,1.77
2023-05-16T23:31:34.429Z,1.90
2023-05-16T23:34:01.304Z,1.75
2023-05-16T23:36:28.328Z,2.00
2023-05-16T23:38:55.004Z,1.80
2023-05-16T23:41:21.736Z,1.70
2023-05-16T23:43:48.498Z,1.60
2023-05-16T23:46:15.445Z,1.60
2023-05-16T23:48:42.276Z,1.80
2023-05-16T23:51:09.097Z,1.50
2023-05-16T23:53:35.866Z,1.80
2023-05-16T23:56:02.665Z,1.63
2023-05-16T23:58:29.400Z,1.50
